الصفحة الرئيسية
METAR-TAF:

METAR-TAF

مطار :

Winslow, أريزونا, الولايات المتحدة

دائرة عرض: 35-01-41N, خط طول: 110-43-15W, ارتفاع: 1505 متر

مراقبة الطقس الحالي

تاريخ ووقت الإصدار 32 دقيقة قبل الساعة 21:56UTC
ريح 10 عقدة من الجنوب/الجنوب الغربي تتزايد حتى 16 عقدة
درجة الحرارة 19°درجة مئوية
الرطوبة 21%
ضغط 1017 hPa
الرؤية: 16.1 كم
غيوم قليلة على ارتفاع 9500 قدم

METAR: KINW 232156Z AUTO 20010G16KT 10SM FEW095 19/M04 A3002 RMK AO2 SLP134 T01891044

زمن: 15:28 (22:28 UTC)

توقعات

تاريخ ووقت الإصدار 4ساعات و 48 دقيقة قبل الساعة 17:40UTC
التوقعات صالحة من23 الساعة 18 UTC إلى 24 الساعة 18 UTC
ريح 5 عقدةمن اتجاهات متغيرة
الرؤية: 10 كم
غيوم قليلة على ارتفاع 8000 قدم
غيوم مفككة على ارتفاع 25000 قدم
من 23 الساعة 2200 UTC
ريح 11 عقدة من الغرب/الجنوب الغربي تتزايد حتى 17 عقدة
الرؤية: 10 كم
غيوم قليلة على ارتفاع 6000 قدم
غيوم مفككة على ارتفاع 25000 قدم
من 24 الساعة 0300 UTC
ريح 4 عقدةمن اتجاهات متغيرة
الرؤية: 10 كم
غيوم متفرقة على ارتفاع 25000 قدم

TAF: KINW 231740Z 2318/2418 VRB05KT P6SM FEW080 BKN250 FM232200 24011G17KT P6SM FEW060 BKN250 FM240300 VRB04KT P6SM SCT250

أرصاد الطقس والتوقعات من أكثر من 4000 مطار (تقارير الطقس للمطار METAR والتنبؤ بالطقس بالمطارTAF).

المحطات المتاحة هي النقط الصفراء والحمراء على الخريطة.

حرك المؤشر فوق النقطة لمعرفة اسم المحطة.

ثم انقر لمعرفة أرصاد وتوقعات الطقس.

لتغيير الخارطة: اضغط على الأزرار الخضراء مع رمز الصليب الأسود للتكبير. على الزر الأخضر مع شرطة للتصغير، أو على الأسهم الخضراء للخرائط المجاورة.


METAR-TAF: